Aérodrome :
LOGIN :

S'inscrire | Disclaimer

   EN    FR    IT 

 










Légende :    VFR   VFR Marginal   IFR   IFR Intensif   IFR Très Intensif
Visi : 
Plafond : 
>= 8 km
>= 3000ft
5 à 8 km
1000 à 3000 ft
1500m à 5 km
500 à 1000 ft
800 à 1500m
200 à 500 ft
< 800m
< 200 ft
Symboles :   Orages  Brouillard  Fortes neiges  Fortes précipitations  Vent > 20 kt
SIGMETs :   Divers  Orages  Givrage  Turbulence  Onde Orograph.  Cendres Volcan.







- Altitude de l'aérodrome : 782 ft
- Code IATA : BGY


LIME - Orio al Serio International - Bergamo

DERNIER METAR :
  • 270620Z 15008KT 110V170 9999 SCT050 SCT110 16/11 Q1015 NOSIG

METARs EXPIRÉS :
  • 270550Z VRB06KT 9999 SCT050 16/11 Q1015 NOSIG
  • 270520Z 12007KT 010V150 9999 SCT050 16/11 Q1015 NOSIG
  • 270450Z 12004KT 010V150 9999 SCT040 16/12 Q1014 NOSIG
  • 270420Z 16005KT 140V200 9999 SCT040 16/12 Q1014 NOSIG
  • 270350Z 17003KT 130V210 9999 SCT040 16/12 Q1014 NOSIG

TAF TAF LIME
Valide du 27 à 06h jusqu'au 28 à 06h UTC


270500Z 2706/2806 VRB05KT 9999 SCT040
TEMPO 2708/2718 12010KT
Pas de NOTAMs connus pour ce terrain.



MET'MAP, la Météo Aéronautique d'un coup d'oeil ! - Copyright ORBIFLY Décembre 2007 - Disclaimer

ORBIFLY MET'MAP TEAM :

Programmation & Développement : Alexandra Zaïnal
Conception & Développement : Baudouin d'Aumeries
Co-Programmation & Développement : Marc-Olivier Méhu
Soutien technique & logistique : Manuel Goepfert

Contact : metmap@orbifly.com




SOURCES & CREDITS :

   NOAA